sensor_id;sensor_type;location;lat;lon;timestamp;P1;durP1;ratioP1;P2;durP2;ratioP2
2159;SDS011;1086;51.610;6.928;2022-07-10T00:00:58;1.00;;;0.63;;
2159;SDS011;1086;51.610;6.928;2022-07-10T00:03:23;1.20;;;0.50;;
2159;SDS011;1086;51.610;6.928;2022-07-10T00:05:48;3.17;;;1.07;;
2159;SDS011;1086;51.610;6.928;2022-07-10T00:08:14;3.67;;;0.77;;
2159;SDS011;1086;51.610;6.928;2022-07-10T00:10:39;2.65;;;0.73;;
2159;SDS011;1086;51.610;6.928;2022-07-10T00:13:05;4.03;;;0.80;;
2159;SDS011;1086;51.610;6.928;2022-07-10T00:15:30;1.17;;;0.40;;
2159;SDS011;1086;51.610;6.928;2022-07-10T00:17:57;1.63;;;0.40;;
2159;SDS011;1086;51.610;6.928;2022-07-10T00:20:22;2.38;;;0.50;;
2159;SDS011;1086;51.610;6.928;2022-07-10T00:22:47;2.30;;;0.68;;
2159;SDS011;1086;51.610;6.928;2022-07-10T00:25:13;3.58;;;0.40;;
2159;SDS011;1086;51.610;6.928;2022-07-10T00:27:38;3.88;;;0.60;;
2159;SDS011;1086;51.610;6.928;2022-07-10T00:30:04;1.25;;;0.60;;
2159;SDS011;1086;51.610;6.928;2022-07-10T00:32:29;2.53;;;0.90;;
2159;SDS011;1086;51.610;6.928;2022-07-10T00:34:55;2.13;;;0.75;;
2159;SDS011;1086;51.610;6.928;2022-07-10T00:37:20;1.00;;;0.50;;
2159;SDS011;1086;51.610;6.928;2022-07-10T00:39:48;4.97;;;1.40;;
2159;SDS011;1086;51.610;6.928;2022-07-10T00:42:13;3.28;;;0.68;;
2159;SDS011;1086;51.610;6.928;2022-07-10T00:44:40;2.80;;;0.70;;
2159;SDS011;1086;51.610;6.928;2022-07-10T00:47:05;3.45;;;0.90;;
2159;SDS011;1086;51.610;6.928;2022-07-10T00:49:34;4.20;;;1.00;;
2159;SDS011;1086;51.610;6.928;2022-07-10T00:52:00;2.05;;;0.73;;
2159;SDS011;1086;51.610;6.928;2022-07-10T00:54:26;1.48;;;0.80;;
2159;SDS011;1086;51.610;6.928;2022-07-10T00:56:51;1.55;;;0.70;;
2159;SDS011;1086;51.610;6.928;2022-07-10T00:59:17;0.98;;;0.60;;
2159;SDS011;1086;51.610;6.928;2022-07-10T01:01:43;1.52;;;0.60;;
2159;SDS011;1086;51.610;6.928;2022-07-10T01:04:09;4.78;;;0.70;;
2159;SDS011;1086;51.610;6.928;2022-07-10T01:06:34;1.60;;;0.70;;
2159;SDS011;1086;51.610;6.928;2022-07-10T01:09:00;1.48;;;0.50;;
2159;SDS011;1086;51.610;6.928;2022-07-10T01:11:25;3.33;;;0.93;;
2159;SDS011;1086;51.610;6.928;2022-07-10T01:13:50;2.10;;;0.50;;
2159;SDS011;1086;51.610;6.928;2022-07-10T01:16:16;2.00;;;0.60;;
2159;SDS011;1086;51.610;6.928;2022-07-10T01:18:42;3.58;;;0.70;;
2159;SDS011;1086;51.610;6.928;2022-07-10T01:21:22;2.83;;;0.70;;
2159;SDS011;1086;51.610;6.928;2022-07-10T01:23:48;1.23;;;0.50;;
2159;SDS011;1086;51.610;6.928;2022-07-10T01:26:13;0.90;;;0.40;;
2159;SDS011;1086;51.610;6.928;2022-07-10T01:28:38;1.98;;;0.60;;
2159;SDS011;1086;51.610;6.928;2022-07-10T01:31:04;1.40;;;0.60;;
2159;SDS011;1086;51.610;6.928;2022-07-10T01:33:29;0.57;;;0.50;;
2159;SDS011;1086;51.610;6.928;2022-07-10T01:35:54;3.72;;;0.70;;
2159;SDS011;1086;51.610;6.928;2022-07-10T01:38:19;1.47;;;0.60;;
2159;SDS011;1086;51.610;6.928;2022-07-10T01:40:45;2.33;;;0.60;;
2159;SDS011;1086;51.610;6.928;2022-07-10T01:43:10;1.57;;;0.90;;
2159;SDS011;1086;51.610;6.928;2022-07-10T01:45:35;2.67;;;0.87;;
2159;SDS011;1086;51.610;6.928;2022-07-10T01:48:00;1.57;;;0.50;;
2159;SDS011;1086;51.610;6.928;2022-07-10T01:50:25;1.00;;;0.60;;
2159;SDS011;1086;51.610;6.928;2022-07-10T01:52:51;1.77;;;0.68;;
2159;SDS011;1086;51.610;6.928;2022-07-10T01:55:16;3.10;;;1.00;;
2159;SDS011;1086;51.610;6.928;2022-07-10T01:57:41;3.50;;;0.75;;
2159;SDS011;1086;51.610;6.928;2022-07-10T02:00:07;1.33;;;0.60;;
2159;SDS011;1086;51.610;6.928;2022-07-10T02:02:33;3.83;;;0.77;;
2159;SDS011;1086;51.610;6.928;2022-07-10T02:04:58;2.57;;;0.80;;
2159;SDS011;1086;51.610;6.928;2022-07-10T02:07:23;3.30;;;0.90;;
2159;SDS011;1086;51.610;6.928;2022-07-10T02:09:50;1.90;;;0.93;;
2159;SDS011;1086;51.610;6.928;2022-07-10T02:12:16;1.10;;;0.47;;
2159;SDS011;1086;51.610;6.928;2022-07-10T02:14:41;1.17;;;0.65;;
2159;SDS011;1086;51.610;6.928;2022-07-10T02:17:07;2.30;;;0.90;;
2159;SDS011;1086;51.610;6.928;2022-07-10T02:19:32;4.25;;;0.98;;
2159;SDS011;1086;51.610;6.928;2022-07-10T02:21:58;1.23;;;0.95;;
2159;SDS011;1086;51.610;6.928;2022-07-10T02:24:24;5.78;;;0.60;;
2159;SDS011;1086;51.610;6.928;2022-07-10T02:26:49;1.85;;;0.50;;
2159;SDS011;1086;51.610;6.928;2022-07-10T02:29:15;2.28;;;0.73;;
2159;SDS011;1086;51.610;6.928;2022-07-10T02:31:40;5.95;;;0.70;;
2159;SDS011;1086;51.610;6.928;2022-07-10T02:34:11;2.03;;;1.20;;
2159;SDS011;1086;51.610;6.928;2022-07-10T02:39:03;1.05;;;0.60;;
2159;SDS011;1086;51.610;6.928;2022-07-10T02:41:29;3.67;;;0.70;;
2159;SDS011;1086;51.610;6.928;2022-07-10T02:43:54;3.50;;;1.00;;
2159;SDS011;1086;51.610;6.928;2022-07-10T02:46:19;1.50;;;0.70;;
2159;SDS011;1086;51.610;6.928;2022-07-10T02:48:44;3.23;;;1.00;;
2159;SDS011;1086;51.610;6.928;2022-07-10T02:51:09;2.37;;;0.63;;
2159;SDS011;1086;51.610;6.928;2022-07-10T02:53:35;4.67;;;0.70;;
2159;SDS011;1086;51.610;6.928;2022-07-10T02:56:00;3.40;;;0.70;;
2159;SDS011;1086;51.610;6.928;2022-07-10T02:58:25;1.25;;;0.70;;
2159;SDS011;1086;51.610;6.928;2022-07-10T03:00:51;1.75;;;0.75;;
2159;SDS011;1086;51.610;6.928;2022-07-10T03:03:16;0.82;;;0.60;;
2159;SDS011;1086;51.610;6.928;2022-07-10T03:05:45;1.48;;;0.50;;
2159;SDS011;1086;51.610;6.928;2022-07-10T03:08:10;3.00;;;0.82;;
2159;SDS011;1086;51.610;6.928;2022-07-10T03:10:36;1.35;;;0.88;;
2159;SDS011;1086;51.610;6.928;2022-07-10T03:13:01;3.10;;;0.70;;
2159;SDS011;1086;51.610;6.928;2022-07-10T03:15:26;1.42;;;0.60;;
2159;SDS011;1086;51.610;6.928;2022-07-10T03:17:52;1.88;;;0.73;;
2159;SDS011;1086;51.610;6.928;2022-07-10T03:20:17;2.75;;;0.80;;
2159;SDS011;1086;51.610;6.928;2022-07-10T03:22:42;4.82;;;0.77;;
2159;SDS011;1086;51.610;6.928;2022-07-10T03:25:07;2.10;;;0.80;;
2159;SDS011;1086;51.610;6.928;2022-07-10T03:27:33;1.65;;;0.73;;
2159;SDS011;1086;51.610;6.928;2022-07-10T03:29:58;2.13;;;0.67;;
2159;SDS011;1086;51.610;6.928;2022-07-10T03:32:23;2.87;;;0.93;;
2159;SDS011;1086;51.610;6.928;2022-07-10T03:34:49;2.15;;;0.85;;
2159;SDS011;1086;51.610;6.928;2022-07-10T03:37:14;2.00;;;0.83;;
2159;SDS011;1086;51.610;6.928;2022-07-10T03:39:39;2.13;;;0.70;;
2159;SDS011;1086;51.610;6.928;2022-07-10T03:42:05;1.65;;;0.80;;
2159;SDS011;1086;51.610;6.928;2022-07-10T03:44:31;5.95;;;0.93;;
2159;SDS011;1086;51.610;6.928;2022-07-10T03:46:56;1.83;;;0.60;;
2159;SDS011;1086;51.610;6.928;2022-07-10T03:49:21;3.27;;;0.70;;
2159;SDS011;1086;51.610;6.928;2022-07-10T03:51:46;2.47;;;0.63;;
2159;SDS011;1086;51.610;6.928;2022-07-10T03:54:12;2.67;;;0.80;;
2159;SDS011;1086;51.610;6.928;2022-07-10T03:56:37;2.65;;;0.50;;
2159;SDS011;1086;51.610;6.928;2022-07-10T03:59:21;4.15;;;0.95;;
2159;SDS011;1086;51.610;6.928;2022-07-10T04:01:46;3.95;;;0.85;;
2159;SDS011;1086;51.610;6.928;2022-07-10T04:04:11;1.63;;;0.60;;
2159;SDS011;1086;51.610;6.928;2022-07-10T04:06:37;2.53;;;0.80;;
2159;SDS011;1086;51.610;6.928;2022-07-10T04:09:05;3.40;;;1.10;;
2159;SDS011;1086;51.610;6.928;2022-07-10T04:11:30;2.03;;;0.80;;
2159;SDS011;1086;51.610;6.928;2022-07-10T04:13:56;0.93;;;0.65;;
2159;SDS011;1086;51.610;6.928;2022-07-10T04:16:21;3.85;;;0.80;;
2159;SDS011;1086;51.610;6.928;2022-07-10T04:18:46;3.03;;;0.88;;
2159;SDS011;1086;51.610;6.928;2022-07-10T04:21:11;3.17;;;0.63;;
2159;SDS011;1086;51.610;6.928;2022-07-10T04:23:37;1.70;;;0.60;;
2159;SDS011;1086;51.610;6.928;2022-07-10T04:26:02;4.05;;;0.70;;
2159;SDS011;1086;51.610;6.928;2022-07-10T04:28:27;1.47;;;0.50;;
2159;SDS011;1086;51.610;6.928;2022-07-10T04:30:52;1.77;;;0.70;;
2159;SDS011;1086;51.610;6.928;2022-07-10T04:33:17;3.47;;;0.97;;
2159;SDS011;1086;51.610;6.928;2022-07-10T04:35:43;2.07;;;0.87;;
2159;SDS011;1086;51.610;6.928;2022-07-10T04:38:08;5.10;;;1.00;;
2159;SDS011;1086;51.610;6.928;2022-07-10T04:40:33;2.03;;;0.90;;
2159;SDS011;1086;51.610;6.928;2022-07-10T04:42:59;2.93;;;0.70;;
2159;SDS011;1086;51.610;6.928;2022-07-10T04:45:24;3.15;;;0.90;;
2159;SDS011;1086;51.610;6.928;2022-07-10T04:47:49;2.30;;;0.80;;
2159;SDS011;1086;51.610;6.928;2022-07-10T04:50:14;2.40;;;0.90;;
2159;SDS011;1086;51.610;6.928;2022-07-10T04:52:40;3.57;;;1.00;;
2159;SDS011;1086;51.610;6.928;2022-07-10T04:55:05;2.30;;;0.77;;
2159;SDS011;1086;51.610;6.928;2022-07-10T04:57:30;2.92;;;0.70;;
2159;SDS011;1086;51.610;6.928;2022-07-10T04:59:56;2.73;;;0.87;;
2159;SDS011;1086;51.610;6.928;2022-07-10T05:02:22;4.68;;;0.60;;
2159;SDS011;1086;51.610;6.928;2022-07-10T05:04:47;1.10;;;0.52;;
2159;SDS011;1086;51.610;6.928;2022-07-10T05:07:13;3.15;;;1.00;;
2159;SDS011;1086;51.610;6.928;2022-07-10T05:09:39;1.00;;;0.70;;
2159;SDS011;1086;51.610;6.928;2022-07-10T05:12:04;2.30;;;0.67;;
2159;SDS011;1086;51.610;6.928;2022-07-10T05:14:30;2.65;;;0.70;;
2159;SDS011;1086;51.610;6.928;2022-07-10T05:16:55;1.40;;;0.57;;
2159;SDS011;1086;51.610;6.928;2022-07-10T05:19:20;2.13;;;0.80;;
2159;SDS011;1086;51.610;6.928;2022-07-10T05:21:45;4.37;;;0.80;;
2159;SDS011;1086;51.610;6.928;2022-07-10T05:24:11;1.43;;;0.87;;
2159;SDS011;1086;51.610;6.928;2022-07-10T05:26:36;1.25;;;0.70;;
2159;SDS011;1086;51.610;6.928;2022-07-10T05:29:01;5.63;;;0.80;;
2159;SDS011;1086;51.610;6.928;2022-07-10T05:31:26;4.60;;;0.80;;
2159;SDS011;1086;51.610;6.928;2022-07-10T05:33:52;2.50;;;0.73;;
2159;SDS011;1086;51.610;6.928;2022-07-10T05:36:17;5.30;;;0.93;;
2159;SDS011;1086;51.610;6.928;2022-07-10T05:38:42;1.10;;;0.70;;
2159;SDS011;1086;51.610;6.928;2022-07-10T05:41:08;5.00;;;1.25;;
2159;SDS011;1086;51.610;6.928;2022-07-10T05:43:33;1.87;;;0.77;;
2159;SDS011;1086;51.610;6.928;2022-07-10T05:45:59;2.67;;;1.17;;
2159;SDS011;1086;51.610;6.928;2022-07-10T05:48:24;3.83;;;0.73;;
2159;SDS011;1086;51.610;6.928;2022-07-10T05:50:49;2.05;;;0.73;;
2159;SDS011;1086;51.610;6.928;2022-07-10T05:53:15;1.98;;;0.70;;
2159;SDS011;1086;51.610;6.928;2022-07-10T05:55:40;4.43;;;1.03;;
2159;SDS011;1086;51.610;6.928;2022-07-10T05:58:05;3.93;;;0.90;;
2159;SDS011;1086;51.610;6.928;2022-07-10T06:00:30;3.13;;;0.70;;
2159;SDS011;1086;51.610;6.928;2022-07-10T06:02:55;2.43;;;0.73;;
2159;SDS011;1086;51.610;6.928;2022-07-10T06:05:21;1.10;;;0.57;;
2159;SDS011;1086;51.610;6.928;2022-07-10T06:07:46;2.35;;;0.60;;
2159;SDS011;1086;51.610;6.928;2022-07-10T06:10:12;5.77;;;0.80;;
2159;SDS011;1086;51.610;6.928;2022-07-10T06:12:37;4.80;;;0.87;;
2159;SDS011;1086;51.610;6.928;2022-07-10T06:15:03;2.28;;;0.75;;
2159;SDS011;1086;51.610;6.928;2022-07-10T06:17:28;3.00;;;0.70;;
2159;SDS011;1086;51.610;6.928;2022-07-10T06:19:53;3.53;;;1.10;;
2159;SDS011;1086;51.610;6.928;2022-07-10T06:22:19;3.67;;;1.27;;
2159;SDS011;1086;51.610;6.928;2022-07-10T06:25:14;1.80;;;0.73;;
2159;SDS011;1086;51.610;6.928;2022-07-10T06:27:39;5.32;;;0.93;;
2159;SDS011;1086;51.610;6.928;2022-07-10T06:30:05;2.00;;;0.60;;
2159;SDS011;1086;51.610;6.928;2022-07-10T06:32:30;2.38;;;0.60;;
2159;SDS011;1086;51.610;6.928;2022-07-10T06:34:56;1.27;;;0.60;;
2159;SDS011;1086;51.610;6.928;2022-07-10T06:37:21;3.50;;;1.20;;
2159;SDS011;1086;51.610;6.928;2022-07-10T06:39:46;2.20;;;0.97;;
2159;SDS011;1086;51.610;6.928;2022-07-10T06:42:12;8.70;;;1.58;;
2159;SDS011;1086;51.610;6.928;2022-07-10T06:44:38;3.53;;;0.65;;
2159;SDS011;1086;51.610;6.928;2022-07-10T06:47:03;2.33;;;0.70;;
2159;SDS011;1086;51.610;6.928;2022-07-10T06:49:47;3.90;;;0.95;;
2159;SDS011;1086;51.610;6.928;2022-07-10T06:52:13;1.70;;;0.68;;
2159;SDS011;1086;51.610;6.928;2022-07-10T06:54:39;2.83;;;0.80;;
2159;SDS011;1086;51.610;6.928;2022-07-10T06:57:04;4.18;;;1.10;;
2159;SDS011;1086;51.610;6.928;2022-07-10T06:59:30;1.85;;;0.82;;
2159;SDS011;1086;51.610;6.928;2022-07-10T07:01:55;2.97;;;0.80;;
2159;SDS011;1086;51.610;6.928;2022-07-10T07:04:20;4.57;;;0.67;;
2159;SDS011;1086;51.610;6.928;2022-07-10T07:06:46;1.00;;;0.50;;
2159;SDS011;1086;51.610;6.928;2022-07-10T07:32:54;4.10;;;0.52;;
2159;SDS011;1086;51.610;6.928;2022-07-10T07:38:17;5.22;;;1.05;;
2159;SDS011;1086;51.610;6.928;2022-07-10T07:46:53;1.67;;;0.70;;
2159;SDS011;1086;51.610;6.928;2022-07-10T07:49:29;3.22;;;1.23;;
2159;SDS011;1086;51.610;6.928;2022-07-10T08:07:34;3.58;;;0.75;;
2159;SDS011;1086;51.610;6.928;2022-07-10T08:10:00;2.53;;;1.00;;
2159;SDS011;1086;51.610;6.928;2022-07-10T08:12:25;1.75;;;0.77;;
2159;SDS011;1086;51.610;6.928;2022-07-10T08:14:51;1.77;;;0.73;;
2159;SDS011;1086;51.610;6.928;2022-07-10T08:17:16;2.80;;;0.90;;
2159;SDS011;1086;51.610;6.928;2022-07-10T08:19:41;1.37;;;0.60;;
2159;SDS011;1086;51.610;6.928;2022-07-10T08:22:06;2.40;;;0.80;;
2159;SDS011;1086;51.610;6.928;2022-07-10T08:24:32;2.35;;;1.05;;
2159;SDS011;1086;51.610;6.928;2022-07-10T08:26:57;3.00;;;1.13;;
2159;SDS011;1086;51.610;6.928;2022-07-10T08:29:22;3.07;;;0.73;;
2159;SDS011;1086;51.610;6.928;2022-07-10T08:31:48;1.25;;;0.73;;
2159;SDS011;1086;51.610;6.928;2022-07-10T08:34:13;0.90;;;0.70;;
2159;SDS011;1086;51.610;6.928;2022-07-10T08:36:38;3.33;;;0.88;;
2159;SDS011;1086;51.610;6.928;2022-07-10T08:39:04;2.97;;;0.93;;
2159;SDS011;1086;51.610;6.928;2022-07-10T08:41:29;3.53;;;0.95;;
2159;SDS011;1086;51.610;6.928;2022-07-10T08:43:56;1.90;;;0.80;;
2159;SDS011;1086;51.610;6.928;2022-07-10T08:46:21;5.03;;;1.20;;
2159;SDS011;1086;51.610;6.928;2022-07-10T08:48:47;5.15;;;1.30;;
2159;SDS011;1086;51.610;6.928;2022-07-10T08:51:12;3.78;;;0.90;;
2159;SDS011;1086;51.610;6.928;2022-07-10T08:53:40;2.92;;;1.00;;
2159;SDS011;1086;51.610;6.928;2022-07-10T08:56:06;2.07;;;1.30;;
2159;SDS011;1086;51.610;6.928;2022-07-10T08:58:31;5.47;;;1.00;;
2159;SDS011;1086;51.610;6.928;2022-07-10T09:00:57;2.50;;;1.10;;
2159;SDS011;1086;51.610;6.928;2022-07-10T09:03:23;2.57;;;0.83;;
2159;SDS011;1086;51.610;6.928;2022-07-10T09:05:48;3.92;;;1.08;;
2159;SDS011;1086;51.610;6.928;2022-07-10T09:11:17;5.00;;;1.40;;
2159;SDS011;1086;51.610;6.928;2022-07-10T09:13:52;2.00;;;1.30;;
2159;SDS011;1086;51.610;6.928;2022-07-10T09:16:29;2.13;;;1.00;;
2159;SDS011;1086;51.610;6.928;2022-07-10T09:19:14;2.72;;;1.13;;
2159;SDS011;1086;51.610;6.928;2022-07-10T09:26:58;2.53;;;1.35;;
2159;SDS011;1086;51.610;6.928;2022-07-10T09:29:56;2.20;;;1.20;;
2159;SDS011;1086;51.610;6.928;2022-07-10T09:49:11;4.43;;;1.90;;
2159;SDS011;1086;51.610;6.928;2022-07-10T09:51:38;3.78;;;1.80;;
2159;SDS011;1086;51.610;6.928;2022-07-10T09:54:05;4.82;;;1.75;;
2159;SDS011;1086;51.610;6.928;2022-07-10T09:56:33;4.10;;;2.08;;
2159;SDS011;1086;51.610;6.928;2022-07-10T09:58:59;4.07;;;2.28;;
2159;SDS011;1086;51.610;6.928;2022-07-10T10:01:25;5.90;;;2.38;;
2159;SDS011;1086;51.610;6.928;2022-07-10T10:03:52;5.03;;;2.10;;
2159;SDS011;1086;51.610;6.928;2022-07-10T10:06:20;3.17;;;2.13;;
2159;SDS011;1086;51.610;6.928;2022-07-10T10:24:47;5.75;;;2.05;;
2159;SDS011;1086;51.610;6.928;2022-07-10T10:27:13;5.00;;;2.00;;
2159;SDS011;1086;51.610;6.928;2022-07-10T10:29:38;7.03;;;1.85;;
2159;SDS011;1086;51.610;6.928;2022-07-10T10:32:04;6.10;;;1.85;;
2159;SDS011;1086;51.610;6.928;2022-07-10T10:34:43;3.58;;;2.05;;
2159;SDS011;1086;51.610;6.928;2022-07-10T10:39:52;2.80;;;1.95;;
2159;SDS011;1086;51.610;6.928;2022-07-10T10:45:23;3.88;;;2.08;;
2159;SDS011;1086;51.610;6.928;2022-07-10T10:53:01;2.15;;;0.95;;
2159;SDS011;1086;51.610;6.928;2022-07-10T10:55:26;1.20;;;0.90;;
2159;SDS011;1086;51.610;6.928;2022-07-10T10:57:52;1.73;;;1.00;;
2159;SDS011;1086;51.610;6.928;2022-07-10T11:00:38;1.00;;;0.90;;
2159;SDS011;1086;51.610;6.928;2022-07-10T11:05:57;0.80;;;0.50;;
2159;SDS011;1086;51.610;6.928;2022-07-10T11:08:38;0.63;;;0.50;;
2159;SDS011;1086;51.610;6.928;2022-07-10T11:13:47;0.50;;;0.50;;
2159;SDS011;1086;51.610;6.928;2022-07-10T11:16:14;1.05;;;0.60;;
2159;SDS011;1086;51.610;6.928;2022-07-10T11:18:39;1.52;;;0.82;;
2159;SDS011;1086;51.610;6.928;2022-07-10T11:21:05;2.72;;;0.55;;
2159;SDS011;1086;51.610;6.928;2022-07-10T11:29:03;1.05;;;0.70;;
2159;SDS011;1086;51.610;6.928;2022-07-10T11:31:32;1.50;;;0.57;;
2159;SDS011;1086;51.610;6.928;2022-07-10T11:34:10;1.05;;;0.60;;
2159;SDS011;1086;51.610;6.928;2022-07-10T11:36:38;1.23;;;0.80;;
2159;SDS011;1086;51.610;6.928;2022-07-10T11:39:07;1.40;;;0.60;;
2159;SDS011;1086;51.610;6.928;2022-07-10T11:41:42;1.45;;;0.90;;
2159;SDS011;1086;51.610;6.928;2022-07-10T11:44:14;0.68;;;0.60;;
2159;SDS011;1086;51.610;6.928;2022-07-10T11:46:41;1.83;;;1.05;;
2159;SDS011;1086;51.610;6.928;2022-07-10T11:49:09;2.85;;;0.75;;
2159;SDS011;1086;51.610;6.928;2022-07-10T11:51:36;3.35;;;0.90;;
2159;SDS011;1086;51.610;6.928;2022-07-10T11:54:02;4.18;;;1.70;;
2159;SDS011;1086;51.610;6.928;2022-07-10T11:56:29;2.42;;;1.20;;
2159;SDS011;1086;51.610;6.928;2022-07-10T12:01:20;2.07;;;1.23;;
2159;SDS011;1086;51.610;6.928;2022-07-10T12:03:52;3.13;;;1.45;;
2159;SDS011;1086;51.610;6.928;2022-07-10T12:06:20;2.20;;;1.10;;
2159;SDS011;1086;51.610;6.928;2022-07-10T12:08:45;2.67;;;1.30;;
2159;SDS011;1086;51.610;6.928;2022-07-10T12:11:12;2.30;;;0.95;;
2159;SDS011;1086;51.610;6.928;2022-07-10T12:13:37;2.53;;;1.15;;
2159;SDS011;1086;51.610;6.928;2022-07-10T12:16:03;2.10;;;1.03;;
2159;SDS011;1086;51.610;6.928;2022-07-10T12:18:28;1.23;;;1.10;;
2159;SDS011;1086;51.610;6.928;2022-07-10T12:20:56;2.97;;;1.30;;
2159;SDS011;1086;51.610;6.928;2022-07-10T12:23:23;1.02;;;0.93;;
2159;SDS011;1086;51.610;6.928;2022-07-10T12:25:49;1.52;;;1.00;;
2159;SDS011;1086;51.610;6.928;2022-07-10T12:28:14;3.25;;;1.45;;
2159;SDS011;1086;51.610;6.928;2022-07-10T12:30:43;2.38;;;0.95;;
2159;SDS011;1086;51.610;6.928;2022-07-10T12:33:13;2.08;;;1.27;;
2159;SDS011;1086;51.610;6.928;2022-07-10T12:38:20;3.03;;;0.90;;
2159;SDS011;1086;51.610;6.928;2022-07-10T12:40:45;2.03;;;1.35;;
2159;SDS011;1086;51.610;6.928;2022-07-10T12:43:11;2.45;;;1.13;;
2159;SDS011;1086;51.610;6.928;2022-07-10T12:45:36;3.03;;;1.20;;
2159;SDS011;1086;51.610;6.928;2022-07-10T12:48:03;3.33;;;1.25;;
2159;SDS011;1086;51.610;6.928;2022-07-10T12:50:30;1.50;;;1.10;;
2159;SDS011;1086;51.610;6.928;2022-07-10T12:53:09;2.55;;;1.15;;
2159;SDS011;1086;51.610;6.928;2022-07-10T12:55:35;1.40;;;1.00;;
2159;SDS011;1086;51.610;6.928;2022-07-10T12:58:19;2.88;;;1.00;;
2159;SDS011;1086;51.610;6.928;2022-07-10T13:00:44;2.95;;;1.13;;
2159;SDS011;1086;51.610;6.928;2022-07-10T13:03:11;1.10;;;0.90;;
2159;SDS011;1086;51.610;6.928;2022-07-10T13:05:37;5.20;;;1.27;;
2159;SDS011;1086;51.610;6.928;2022-07-10T13:10:36;4.60;;;1.77;;
2159;SDS011;1086;51.610;6.928;2022-07-10T13:13:03;2.08;;;1.33;;
2159;SDS011;1086;51.610;6.928;2022-07-10T13:15:28;3.50;;;1.48;;
2159;SDS011;1086;51.610;6.928;2022-07-10T13:17:54;6.22;;;1.65;;
2159;SDS011;1086;51.610;6.928;2022-07-10T13:20:19;4.05;;;1.98;;
2159;SDS011;1086;51.610;6.928;2022-07-10T13:22:45;1.98;;;0.93;;
2159;SDS011;1086;51.610;6.928;2022-07-10T13:25:10;3.95;;;0.90;;
2159;SDS011;1086;51.610;6.928;2022-07-10T13:27:35;3.08;;;1.15;;
2159;SDS011;1086;51.610;6.928;2022-07-10T13:30:02;1.02;;;0.68;;
2159;SDS011;1086;51.610;6.928;2022-07-10T13:32:28;3.20;;;1.00;;
2159;SDS011;1086;51.610;6.928;2022-07-10T13:34:54;1.30;;;0.90;;
2159;SDS011;1086;51.610;6.928;2022-07-10T13:37:19;2.10;;;0.88;;
2159;SDS011;1086;51.610;6.928;2022-07-10T13:39:45;1.80;;;0.90;;
2159;SDS011;1086;51.610;6.928;2022-07-10T13:42:10;1.10;;;0.70;;
2159;SDS011;1086;51.610;6.928;2022-07-10T13:44:35;1.77;;;1.00;;
2159;SDS011;1086;51.610;6.928;2022-07-10T13:47:01;2.97;;;0.90;;
2159;SDS011;1086;51.610;6.928;2022-07-10T13:49:26;1.23;;;0.90;;
2159;SDS011;1086;51.610;6.928;2022-07-10T13:51:52;0.95;;;0.70;;
2159;SDS011;1086;51.610;6.928;2022-07-10T13:54:17;1.67;;;1.02;;
2159;SDS011;1086;51.610;6.928;2022-07-10T13:56:43;2.80;;;1.05;;
2159;SDS011;1086;51.610;6.928;2022-07-10T13:59:08;1.73;;;0.70;;
2159;SDS011;1086;51.610;6.928;2022-07-10T14:01:33;1.17;;;0.68;;
2159;SDS011;1086;51.610;6.928;2022-07-10T14:03:59;2.30;;;0.90;;
2159;SDS011;1086;51.610;6.928;2022-07-10T14:06:24;2.10;;;0.90;;
2159;SDS011;1086;51.610;6.928;2022-07-10T14:08:49;1.43;;;0.70;;
2159;SDS011;1086;51.610;6.928;2022-07-10T14:11:14;2.53;;;1.00;;
2159;SDS011;1086;51.610;6.928;2022-07-10T14:13:40;1.80;;;0.80;;
2159;SDS011;1086;51.610;6.928;2022-07-10T14:16:05;2.35;;;0.80;;
2159;SDS011;1086;51.610;6.928;2022-07-10T14:18:30;1.00;;;0.63;;
2159;SDS011;1086;51.610;6.928;2022-07-10T14:21:04;2.00;;;0.82;;
2159;SDS011;1086;51.610;6.928;2022-07-10T14:23:29;1.23;;;0.55;;
2159;SDS011;1086;51.610;6.928;2022-07-10T14:25:55;2.55;;;0.82;;
2159;SDS011;1086;51.610;6.928;2022-07-10T14:28:20;0.63;;;0.60;;
2159;SDS011;1086;51.610;6.928;2022-07-10T14:30:46;1.42;;;0.60;;
2159;SDS011;1086;51.610;6.928;2022-07-10T14:33:11;2.42;;;0.82;;
2159;SDS011;1086;51.610;6.928;2022-07-10T14:35:36;1.25;;;0.60;;
2159;SDS011;1086;51.610;6.928;2022-07-10T14:38:02;3.20;;;0.77;;
2159;SDS011;1086;51.610;6.928;2022-07-10T14:40:27;1.47;;;0.70;;
2159;SDS011;1086;51.610;6.928;2022-07-10T14:42:52;3.07;;;0.70;;
2159;SDS011;1086;51.610;6.928;2022-07-10T14:45:21;0.90;;;0.70;;
2159;SDS011;1086;51.610;6.928;2022-07-10T14:47:48;1.58;;;0.82;;
2159;SDS011;1086;51.610;6.928;2022-07-10T14:50:13;0.80;;;0.60;;
2159;SDS011;1086;51.610;6.928;2022-07-10T14:52:41;2.83;;;0.90;;
2159;SDS011;1086;51.610;6.928;2022-07-10T14:55:12;0.98;;;0.70;;
2159;SDS011;1086;51.610;6.928;2022-07-10T14:57:38;0.98;;;0.70;;
2159;SDS011;1086;51.610;6.928;2022-07-10T15:00:03;2.92;;;0.85;;
2159;SDS011;1086;51.610;6.928;2022-07-10T15:02:29;2.95;;;0.50;;
2159;SDS011;1086;51.610;6.928;2022-07-10T15:05:00;1.08;;;0.68;;
2159;SDS011;1086;51.610;6.928;2022-07-10T15:07:28;1.77;;;0.75;;
2159;SDS011;1086;51.610;6.928;2022-07-10T15:09:54;2.30;;;0.82;;
2159;SDS011;1086;51.610;6.928;2022-07-10T15:12:19;0.68;;;0.60;;
2159;SDS011;1086;51.610;6.928;2022-07-10T15:14:45;1.25;;;0.60;;
2159;SDS011;1086;51.610;6.928;2022-07-10T15:17:13;1.27;;;0.85;;
2159;SDS011;1086;51.610;6.928;2022-07-10T15:19:38;1.33;;;0.60;;
2159;SDS011;1086;51.610;6.928;2022-07-10T15:22:04;1.17;;;0.60;;
2159;SDS011;1086;51.610;6.928;2022-07-10T15:24:36;0.95;;;0.55;;
2159;SDS011;1086;51.610;6.928;2022-07-10T15:27:17;1.35;;;0.65;;
2159;SDS011;1086;51.610;6.928;2022-07-10T15:29:42;0.57;;;0.57;;
2159;SDS011;1086;51.610;6.928;2022-07-10T15:32:11;1.30;;;0.43;;
2159;SDS011;1086;51.610;6.928;2022-07-10T15:34:39;1.70;;;0.77;;
2159;SDS011;1086;51.610;6.928;2022-07-10T15:37:05;0.85;;;0.55;;
2159;SDS011;1086;51.610;6.928;2022-07-10T15:39:33;2.08;;;0.60;;
2159;SDS011;1086;51.610;6.928;2022-07-10T15:42:06;1.13;;;0.70;;
2159;SDS011;1086;51.610;6.928;2022-07-10T15:44:38;1.30;;;0.65;;
2159;SDS011;1086;51.610;6.928;2022-07-10T15:47:03;1.38;;;0.90;;
2159;SDS011;1086;51.610;6.928;2022-07-10T15:52:31;1.20;;;0.70;;
2159;SDS011;1086;51.610;6.928;2022-07-10T15:54:57;3.83;;;0.63;;
2159;SDS011;1086;51.610;6.928;2022-07-10T15:57:22;1.50;;;0.50;;
2159;SDS011;1086;51.610;6.928;2022-07-10T15:59:47;0.60;;;0.50;;
2159;SDS011;1086;51.610;6.928;2022-07-10T16:02:13;2.10;;;0.70;;
2159;SDS011;1086;51.610;6.928;2022-07-10T16:04:38;1.90;;;0.70;;
2159;SDS011;1086;51.610;6.928;2022-07-10T16:07:04;2.13;;;0.93;;
2159;SDS011;1086;51.610;6.928;2022-07-10T16:09:32;1.35;;;0.90;;
2159;SDS011;1086;51.610;6.928;2022-07-10T16:11:57;2.22;;;0.90;;
2159;SDS011;1086;51.610;6.928;2022-07-10T16:14:23;0.73;;;0.50;;
2159;SDS011;1086;51.610;6.928;2022-07-10T16:16:48;1.00;;;0.70;;
2159;SDS011;1086;51.610;6.928;2022-07-10T16:25:20;1.60;;;0.80;;
2159;SDS011;1086;51.610;6.928;2022-07-10T16:28:06;1.77;;;0.70;;
2159;SDS011;1086;51.610;6.928;2022-07-10T16:53:17;1.45;;;1.10;;
2159;SDS011;1086;51.610;6.928;2022-07-10T16:55:48;3.17;;;0.88;;
2159;SDS011;1086;51.610;6.928;2022-07-10T16:58:15;1.58;;;0.73;;
2159;SDS011;1086;51.610;6.928;2022-07-10T17:00:40;2.65;;;0.90;;
2159;SDS011;1086;51.610;6.928;2022-07-10T17:03:08;1.20;;;0.70;;
2159;SDS011;1086;51.610;6.928;2022-07-10T17:06:11;0.90;;;0.70;;
2159;SDS011;1086;51.610;6.928;2022-07-10T17:08:44;2.15;;;0.77;;
2159;SDS011;1086;51.610;6.928;2022-07-10T17:11:22;1.77;;;0.80;;
2159;SDS011;1086;51.610;6.928;2022-07-10T17:20:15;1.52;;;0.90;;
2159;SDS011;1086;51.610;6.928;2022-07-10T17:22:41;1.50;;;0.70;;
2159;SDS011;1086;51.610;6.928;2022-07-10T17:25:08;1.23;;;0.73;;
2159;SDS011;1086;51.610;6.928;2022-07-10T17:27:34;2.55;;;0.90;;
2159;SDS011;1086;51.610;6.928;2022-07-10T17:29:59;1.95;;;1.00;;
2159;SDS011;1086;51.610;6.928;2022-07-10T17:32:24;1.00;;;0.70;;
2159;SDS011;1086;51.610;6.928;2022-07-10T17:34:52;1.67;;;0.88;;
2159;SDS011;1086;51.610;6.928;2022-07-10T17:37:17;1.67;;;0.80;;
2159;SDS011;1086;51.610;6.928;2022-07-10T17:39:43;1.55;;;0.73;;
2159;SDS011;1086;51.610;6.928;2022-07-10T17:42:09;2.53;;;0.65;;
2159;SDS011;1086;51.610;6.928;2022-07-10T17:44:34;2.35;;;0.70;;
2159;SDS011;1086;51.610;6.928;2022-07-10T17:46:59;0.90;;;0.57;;
2159;SDS011;1086;51.610;6.928;2022-07-10T17:49:25;5.40;;;1.23;;
2159;SDS011;1086;51.610;6.928;2022-07-10T17:51:57;1.92;;;1.20;;